Time;durP1;ratioP1;P1;durP2;ratioP2;P2;SDS_P1;SDS_P2;PMS_P1;PMS_P2;Temp;Humidity;BMP_temperature;BMP_pressure;BME280_temperature;BME280_humidity;BME280_pressure;Samples;Min_cycle;Max_cycle;Signal;HPM_P1;HPM_P2
2022/05/02 00:01:33;;;;;;;12.93;8.30;;;10.30;71.30;;;;;;5077077;28;20123;-80
2022/05/02 00:03:59;;;;;;;12.20;7.93;;;10.30;71.40;;;;;;5077249;28;20095;-80
2022/05/02 00:06:24;;;;;;;10.77;7.03;;;10.20;71.40;;;;;;5077602;28;20024;-81
2022/05/02 00:08:50;;;;;;;15.20;8.60;;;10.20;71.40;;;;;;5077595;28;20177;-80
2022/05/02 00:11:15;;;;;;;14.27;7.50;;;10.20;71.40;;;;;;5076925;28;20029;-81
2022/05/02 00:13:41;;;;;;;12.63;7.03;;;10.30;71.40;;;;;;5076940;28;20557;-80
2022/05/02 00:16:07;;;;;;;12.07;7.63;;;10.20;71.40;;;;;;5095491;28;20105;-80
2022/05/02 00:18:33;;;;;;;15.13;8.83;;;10.20;71.40;;;;;;5093751;28;20400;-80
2022/05/02 00:20:58;;;;;;;14.80;7.93;;;10.20;71.40;;;;;;5076127;28;20080;-80
2022/05/02 00:23:24;;;;;;;12.03;7.70;;;10.20;71.50;;;;;;5085259;28;20036;-80
2022/05/02 00:25:50;;;;;;;11.87;7.47;;;10.10;71.50;;;;;;5074429;28;20035;-80
2022/05/02 00:28:16;;;;;;;12.27;7.93;;;10.10;71.60;;;;;;5074358;28;20032;-80
2022/05/02 00:30:42;;;;;;;13.13;8.17;;;10.10;71.70;;;;;;5075006;28;20020;-80
2022/05/02 00:33:08;;;;;;;13.37;8.20;;;10.10;71.80;;;;;;5074786;28;20107;-80
2022/05/02 00:35:34;;;;;;;11.53;7.83;;;10.10;71.90;;;;;;5056760;28;20060;-80
2022/05/02 00:38:00;;;;;;;10.53;6.90;;;10.00;71.90;;;;;;5056393;28;20056;-80
2022/05/02 00:40:25;;;;;;;15.30;7.83;;;10.00;72.00;;;;;;5056373;28;20032;-80
2022/05/02 00:42:51;;;;;;;10.73;6.40;;;10.00;72.00;;;;;;5074133;28;20121;-80
2022/05/02 00:45:18;;;;;;;13.40;7.10;;;10.00;72.10;;;;;;5074143;28;20028;-80
2022/05/02 00:47:55;;;;;;;11.43;7.27;;;10.00;72.20;;;;;;5073555;28;20031;-80
2022/05/02 00:50:34;;;;;;;13.30;7.70;;;10.00;72.30;;;;;;5074001;28;20465;-80
2022/05/02 00:53:01;;;;;;;14.13;7.23;;;10.00;72.30;;;;;;5074009;28;20028;-80
2022/05/02 00:55:27;;;;;;;13.10;7.73;;;10.00;72.30;;;;;;5073994;28;20040;-80
2022/05/02 00:57:54;;;;;;;13.90;7.67;;;10.00;72.40;;;;;;5056093;28;20123;-80
2022/05/02 01:00:20;;;;;;;11.73;6.47;;;9.90;72.40;;;;;;5073859;28;20442;-80
2022/05/02 01:02:46;;;;;;;11.73;6.60;;;9.90;72.40;;;;;;5056074;28;20112;-80
2022/05/02 01:05:12;;;;;;;11.43;7.03;;;9.90;72.50;;;;;;5073923;28;20032;-80
2022/05/02 01:07:38;;;;;;;12.07;7.97;;;10.00;72.60;;;;;;5056050;28;20162;-79
2022/05/02 01:10:04;;;;;;;10.90;7.27;;;9.90;72.70;;;;;;5055858;28;20435;-80
2022/05/02 01:12:30;;;;;;;12.13;7.23;;;9.90;72.70;;;;;;5073723;28;20037;-80
2022/05/02 01:14:57;;;;;;;11.70;6.77;;;9.90;72.80;;;;;;5073719;28;20056;-80
2022/05/02 01:17:23;;;;;;;10.60;7.20;;;9.90;72.90;;;;;;5073558;28;20036;-80
2022/05/02 01:19:52;;;;;;;12.27;7.43;;;9.80;72.90;;;;;;5072336;28;20431;-80
2022/05/02 01:22:18;;;;;;;11.40;7.07;;;9.80;73.00;;;;;;5073611;28;20112;-80
2022/05/02 01:24:46;;;;;;;12.93;7.73;;;9.90;73.10;;;;;;5073612;28;20056;-81
2022/05/02 01:27:13;;;;;;;16.50;8.10;;;9.80;73.10;;;;;;5055384;28;20044;-80
2022/05/02 01:29:42;;;;;;;10.83;7.47;;;9.80;73.30;;;;;;5072303;28;20025;-80
2022/05/02 01:32:14;;;;;;;10.87;7.07;;;9.80;73.30;;;;;;5055559;28;20150;-80
2022/05/02 01:34:40;;;;;;;11.33;7.47;;;9.80;73.40;;;;;;5073467;28;20025;-80
2022/05/02 01:37:10;;;;;;;13.80;8.23;;;9.80;73.40;;;;;;5073510;28;20111;-80
2022/05/02 01:39:36;;;;;;;11.00;6.97;;;9.80;73.50;;;;;;5073548;28;20039;-80
2022/05/02 01:42:07;;;;;;;13.33;7.37;;;9.80;73.50;;;;;;5073326;28;20033;-80
2022/05/02 01:44:34;;;;;;;12.60;8.13;;;9.70;73.50;;;;;;5072142;28;20020;-80
2022/05/02 01:47:00;;;;;;;10.97;7.13;;;9.70;73.60;;;;;;5039042;28;20098;-80
2022/05/02 01:49:26;;;;;;;12.40;7.97;;;9.70;73.70;;;;;;5073377;28;20025;-80
2022/05/02 01:51:53;;;;;;;13.20;8.00;;;9.70;73.80;;;;;;5073287;28;20093;-80
2022/05/02 01:54:18;;;;;;;13.50;7.77;;;9.70;73.80;;;;;;5073304;28;20033;-80
2022/05/02 01:56:44;;;;;;;12.70;7.20;;;9.60;73.90;;;;;;5073581;28;20060;-80
2022/05/02 01:59:10;;;;;;;13.70;7.97;;;9.60;73.90;;;;;;5075627;28;20388;-80
2022/05/02 02:01:35;;;;;;;15.73;8.43;;;9.60;74.00;;;;;;5077262;28;20025;-80
2022/05/02 02:05:48;;;;;;;12.07;7.03;;;9.60;74.10;;;;;;5059312;28;20098;-80
2022/05/02 02:06:50;;;;;;;13.50;7.57;;;9.60;74.10;;;;;;5077109;28;20036;-80
2022/05/02 02:09:15;;;;;;;16.47;8.63;;;9.60;74.10;;;;;;5077287;28;20496;-80
2022/05/02 02:11:41;;;;;;;14.47;9.00;;;9.60;74.10;;;;;;5059476;28;20029;-80
2022/05/02 02:14:07;;;;;;;13.47;8.17;;;9.60;74.10;;;;;;5059095;28;20131;-80
2022/05/02 02:16:33;;;;;;;12.83;8.43;;;9.50;74.20;;;;;;5059084;28;20036;-80
2022/05/02 02:18:59;;;;;;;13.90;8.17;;;9.50;74.20;;;;;;5076931;28;20037;-80
2022/05/02 02:21:24;;;;;;;14.20;8.80;;;9.50;74.30;;;;;;5076885;28;20508;-80
2022/05/02 02:23:50;;;;;;;14.23;9.10;;;9.50;74.40;;;;;;5059363;28;20028;-80
2022/05/02 02:26:16;;;;;;;14.83;8.67;;;9.50;74.50;;;;;;5075528;28;20056;-80
2022/05/02 02:28:41;;;;;;;13.07;7.77;;;9.40;74.60;;;;;;5058917;28;20064;-80
2022/05/02 02:31:07;;;;;;;15.13;9.17;;;9.50;74.70;;;;;;5058735;28;20083;-79
2022/05/02 02:33:33;;;;;;;13.73;8.63;;;9.40;74.70;;;;;;5077016;28;20385;-80
2022/05/02 02:35:59;;;;;;;13.00;9.17;;;9.40;74.90;;;;;;5075433;28;20024;-80
2022/05/02 02:38:25;;;;;;;15.20;8.63;;;9.30;75.00;;;;;;5076603;28;20039;-80
2022/05/02 02:40:51;;;;;;;14.20;8.00;;;9.30;75.10;;;;;;5076554;28;20550;-80
2022/05/02 02:43:17;;;;;;;13.77;8.93;;;9.30;75.40;;;;;;5058742;28;20112;-80
2022/05/02 02:45:43;;;;;;;14.73;8.40;;;9.30;75.60;;;;;;5058671;28;20496;-80
2022/05/02 02:48:08;;;;;;;14.90;8.23;;;9.10;75.70;;;;;;5076340;28;20032;-80
2022/05/02 02:50:34;;;;;;;15.23;9.20;;;9.10;75.90;;;;;;5076390;28;20577;-80
2022/05/02 02:53:00;;;;;;;13.53;8.83;;;9.20;76.10;;;;;;5058507;28;20033;-80
2022/05/02 02:55:26;;;;;;;12.63;8.70;;;9.10;76.10;;;;;;5076420;28;20032;-80
2022/05/02 02:57:52;;;;;;;13.13;8.90;;;9.10;76.30;;;;;;5058524;28;20411;-80
2022/05/02 03:00:18;;;;;;;14.07;9.20;;;9.10;76.40;;;;;;5076254;28;20460;-80
2022/05/02 03:02:44;;;;;;;15.73;9.90;;;9.00;76.50;;;;;;5076293;28;20365;-80
2022/05/02 03:07:53;;;;;;;16.67;9.93;;;9.00;76.70;;;;;;5076537;28;20124;-79
2022/05/02 03:10:20;;;;;;;14.50;8.70;;;9.00;76.80;;;;;;5057534;28;20500;-80
2022/05/02 03:12:46;;;;;;;13.43;8.73;;;8.90;76.90;;;;;;5075980;28;20472;-80
2022/05/02 03:15:11;;;;;;;14.20;8.70;;;8.90;77.00;;;;;;5041561;28;20032;-80
2022/05/02 03:17:37;;;;;;;13.17;9.30;;;8.90;77.10;;;;;;5058413;28;20036;-80
2022/05/02 03:20:04;;;;;;;13.83;9.63;;;8.90;77.20;;;;;;5075853;28;20028;-80
2022/05/02 03:22:29;;;;;;;17.10;9.30;;;8.90;77.30;;;;;;5057994;28;20119;-80
2022/05/02 03:24:55;;;;;;;14.13;9.27;;;8.80;77.40;;;;;;5075796;28;20107;-80
2022/05/02 03:27:20;;;;;;;14.50;9.17;;;8.80;77.50;;;;;;5075755;28;20048;-80
2022/05/02 03:29:46;;;;;;;16.83;9.10;;;8.70;77.70;;;;;;5075686;28;20031;-80
2022/05/02 03:32:11;;;;;;;14.20;9.80;;;8.70;77.80;;;;;;5057736;28;20029;-80
2022/05/02 03:34:37;;;;;;;17.07;9.83;;;8.60;77.90;;;;;;5057832;28;20036;-80
2022/05/02 03:37:03;;;;;;;13.73;9.23;;;8.60;78.00;;;;;;5075571;28;20107;-80
2022/05/02 03:39:29;;;;;;;16.13;9.70;;;8.60;78.10;;;;;;5075593;28;20029;-80
2022/05/02 03:41:54;;;;;;;12.20;8.93;;;8.60;78.20;;;;;;5057652;28;20075;-80
2022/05/02 03:44:20;;;;;;;13.47;9.43;;;8.50;78.20;;;;;;5075848;28;20086;-80
2022/05/02 03:46:45;;;;;;;13.13;8.93;;;8.60;78.30;;;;;;5075673;28;20052;-80
2022/05/02 03:49:11;;;;;;;14.57;9.60;;;8.50;78.30;;;;;;5075286;28;20040;-80
2022/05/02 03:51:37;;;;;;;15.23;9.07;;;8.50;78.30;;;;;;5087716;28;20194;-80
2022/05/02 03:54:04;;;;;;;15.93;10.40;;;8.40;78.40;;;;;;5077237;28;20028;-80
2022/05/02 03:56:29;;;;;;;14.90;9.13;;;8.40;78.50;;;;;;5060676;28;20384;-80
2022/05/02 03:58:55;;;;;;;14.83;9.30;;;8.40;78.70;;;;;;5077344;28;20031;-80
2022/05/02 04:01:20;;;;;;;14.97;9.57;;;8.30;78.70;;;;;;5095853;28;20024;-80
2022/05/02 04:03:46;;;;;;;15.00;8.70;;;8.30;78.80;;;;;;5077134;28;20037;-80
2022/05/02 04:06:13;;;;;;;16.73;10.00;;;8.30;79.00;;;;;;5077087;28;20051;-80
2022/05/02 04:08:38;;;;;;;14.67;9.13;;;8.30;79.00;;;;;;5095528;28;20511;-80
2022/05/02 04:11:04;;;;;;;15.57;10.13;;;8.30;79.20;;;;;;5095314;28;20024;-80
2022/05/02 04:13:30;;;;;;;14.90;9.13;;;8.20;79.20;;;;;;5095075;28;20016;-80
2022/05/02 04:15:56;;;;;;;18.70;10.80;;;8.20;79.40;;;;;;5060279;28;20035;-79
2022/05/02 04:18:21;;;;;;;16.77;10.00;;;8.20;79.40;;;;;;5094956;28;20388;-79
2022/05/02 04:20:47;;;;;;;19.03;10.30;;;8.20;79.60;;;;;;5094240;28;20036;-80
2022/05/02 04:23:13;;;;;;;14.57;9.23;;;8.10;80.30;;;;;;5094530;28;20028;-80
2022/05/02 04:25:38;;;;;;;16.10;9.90;;;8.00;79.70;;;;;;5094905;28;20097;-79
2022/05/02 04:28:04;;;;;;;16.97;10.00;;;8.10;79.90;;;;;;5076462;28;20048;-80
2022/05/02 04:30:30;;;;;;;15.53;9.97;;;8.10;80.10;;;;;;5077500;28;20047;-79
2022/05/02 04:32:56;;;;;;;16.37;10.27;;;8.10;80.90;;;;;;5076656;28;20039;-80
2022/05/02 04:35:21;;;;;;;14.50;9.57;;;8.10;80.40;;;;;;5094571;28;20028;-80
2022/05/02 04:37:47;;;;;;;14.47;10.20;;;8.10;80.50;;;;;;5094517;28;20047;-80
2022/05/02 04:40:12;;;;;;;17.47;10.60;;;8.10;80.70;;;;;;5094523;28;20031;-81
2022/05/02 04:42:38;;;;;;;17.50;10.40;;;8.00;80.60;;;;;;5094356;28;20032;-80
2022/05/02 04:45:04;;;;;;;15.60;10.77;;;8.10;80.80;;;;;;5076355;28;20503;-80
2022/05/02 04:47:30;;;;;;;19.80;10.37;;;8.10;81.00;;;;;;5094242;28;20091;-80
2022/05/02 04:49:55;;;;;;;15.60;9.47;;;8.10;81.10;;;;;;5059289;28;20392;-80
2022/05/02 04:52:21;;;;;;;15.70;9.77;;;8.10;81.10;;;;;;5075924;28;20028;-80
2022/05/02 04:54:46;;;;;;;18.80;11.70;;;8.10;81.20;;;;;;5094373;28;20031;-81
2022/05/02 04:57:12;;;;;;;18.07;11.00;;;8.20;81.30;;;;;;5076195;28;20028;-80
2022/05/02 04:59:37;;;;;;;19.33;10.03;;;8.10;81.40;;;;;;5076091;28;20034;-80
2022/05/02 05:02:04;;;;;;;16.23;9.67;;;8.10;81.50;;;;;;5094160;28;20035;-80
2022/05/02 05:04:30;;;;;;;17.50;10.47;;;8.10;81.50;;;;;;5076236;28;20027;-80
2022/05/02 05:06:55;;;;;;;19.33;10.10;;;8.20;81.60;;;;;;5094095;28;20021;-81
2022/05/02 05:09:21;;;;;;;17.50;10.50;;;8.10;81.60;;;;;;5094080;28;20365;-80
2022/05/02 05:12:09;;;;;;;18.63;10.47;;;8.20;81.60;;;;;;5075926;28;20036;-81
2022/05/02 05:17:46;;;;;;;22.87;9.60;;;8.20;81.70;;;;;;5089930;28;20522;-81
2022/05/02 05:20:29;;;;;;;19.60;10.03;;;8.30;81.70;;;;;;5088172;28;20016;-81
2022/05/02 05:23:17;;;;;;;15.73;9.67;;;8.30;81.80;;;;;;5081845;28;20050;-81
2022/05/02 05:26:04;;;;;;;20.97;11.83;;;8.30;81.90;;;;;;5063343;28;20024;-81
2022/05/02 05:28:55;;;;;;;19.93;10.50;;;8.30;82.00;;;;;;5073496;28;20047;-81
2022/05/02 05:31:38;;;;;;;22.10;10.33;;;8.40;82.10;;;;;;5073621;28;20025;-81
2022/05/02 05:34:16;;;;;;;23.03;10.43;;;8.40;82.10;;;;;;5055343;28;20047;-81
2022/05/02 05:37:14;;;;;;;28.57;10.63;;;8.50;82.20;;;;;;5073649;28;20035;-81
2022/05/02 05:39:47;;;;;;;17.13;9.43;;;8.50;82.20;;;;;;5022770;28;20041;-81
2022/05/02 05:42:37;;;;;;;18.50;10.10;;;8.50;82.20;;;;;;5073356;28;20021;-81
2022/05/02 05:45:08;;;;;;;20.67;10.20;;;8.60;82.30;;;;;;5073334;28;20305;-81
2022/05/02 05:47:43;;;;;;;23.30;10.83;;;8.60;82.30;;;;;;5073401;28;20118;-81
2022/05/02 05:50:21;;;;;;;19.07;10.63;;;8.70;82.50;;;;;;5073377;28;20473;-81
2022/05/02 05:53:13;;;;;;;19.67;10.93;;;8.80;82.50;;;;;;5073388;28;20109;-81
2022/05/02 05:55:57;;;;;;;24.37;11.83;;;8.80;82.50;;;;;;5073169;28;20024;-81
2022/05/02 05:58:48;;;;;;;16.30;9.87;;;8.90;82.60;;;;;;5055551;28;20101;-81
2022/05/02 06:01:19;;;;;;;17.40;9.83;;;8.90;82.50;;;;;;5073227;28;20328;-81
2022/05/02 06:04:07;;;;;;;18.10;9.20;;;9.00;82.50;;;;;;5055113;28;20029;-80
2022/05/02 06:06:35;;;;;;;19.70;11.07;;;9.10;82.60;;;;;;5073285;28;20096;-80
2022/05/02 06:09:02;;;;;;;17.23;8.80;;;9.10;82.60;;;;;;5073187;28;20024;-80
2022/05/02 06:11:29;;;;;;;16.27;10.27;;;9.20;82.60;;;;;;5090427;28;20043;-80
2022/05/02 06:13:56;;;;;;;14.60;9.97;;;9.20;82.70;;;;;;5075148;28;20036;-80
2022/05/02 06:19:15;;;;;;;16.67;10.20;;;9.40;82.80;;;;;;5092326;28;20043;-81
2022/05/02 06:21:44;;;;;;;16.80;10.37;;;9.40;82.70;;;;;;5075561;28;20082;-80
2022/05/02 06:24:11;;;;;;;16.57;10.63;;;9.50;82.80;;;;;;5072671;28;20025;-81
2022/05/02 06:26:42;;;;;;;17.13;10.37;;;9.50;83.40;;;;;;5055160;28;20045;-80
2022/05/02 06:29:10;;;;;;;16.67;9.57;;;9.70;83.00;;;;;;5071718;28;20031;-81
2022/05/02 06:31:37;;;;;;;21.87;10.17;;;9.70;83.00;;;;;;5072951;28;20100;-81
2022/05/02 06:34:05;;;;;;;18.23;9.73;;;9.70;83.10;;;;;;5072823;28;20031;-80
2022/05/02 06:36:52;;;;;;;16.27;9.23;;;9.70;83.20;;;;;;5072906;28;20039;-81
2022/05/02 06:39:44;;;;;;;15.47;9.00;;;9.90;83.30;;;;;;5072803;28;20101;-81
2022/05/02 06:42:21;;;;;;;14.57;8.73;;;9.90;83.20;;;;;;5071638;28;20044;-81
2022/05/02 06:45:02;;;;;;;16.83;9.37;;;10.00;83.00;;;;;;5074067;28;20019;-80
2022/05/02 06:47:49;;;;;;;13.40;9.27;;;10.10;83.00;;;;;;5075230;28;20111;-81
2022/05/02 06:50:20;;;;;;;15.07;8.53;;;10.20;82.90;;;;;;5076200;28;20056;-81
2022/05/02 06:53:07;;;;;;;12.97;8.57;;;10.30;83.40;;;;;;5093153;28;20108;-82
2022/05/02 06:55:47;;;;;;;12.20;8.85;;;10.30;82.60;;;;;;5078396;28;20024;-81
2022/05/02 06:58:30;;;;;;;13.73;7.97;;;10.40;82.40;;;;;;5096452;28;20085;-82
2022/05/02 07:01:05;;;;;;;15.70;7.88;;;10.50;82.20;;;;;;5078341;28;20024;-82
2022/05/02 07:04:16;;;;;;;13.73;8.93;;;10.60;81.90;;;;;;5096314;28;20028;-81
2022/05/02 07:07:11;;;;;;;11.40;7.47;;;10.70;81.60;;;;;;5078104;28;20035;-81
2022/05/02 07:09:48;;;;;;;10.50;6.60;;;10.80;81.20;;;;;;5102088;28;20107;-81
2022/05/02 07:12:24;;;;;;;14.27;7.25;;;10.90;80.90;;;;;;5116753;28;20032;-82
2022/05/02 07:14:59;;;;;;;14.25;7.47;;;10.90;80.50;;;;;;5116526;28;20030;-82
2022/05/02 07:17:42;;;;;;;12.63;7.35;;;11.10;80.10;;;;;;5098228;28;20467;-82
2022/05/02 07:20:32;;;;;;;10.05;6.32;;;11.10;79.70;;;;;;5116541;28;20035;-83
2022/05/02 07:23:16;;;;;;;11.70;7.32;;;11.20;79.40;;;;;;5075583;28;20068;-83
2022/05/02 07:25:47;;;;;;;11.18;6.40;;;11.30;79.00;;;;;;5075736;28;20380;-81
2022/05/02 07:28:44;;;;;;;11.85;6.35;;;11.40;78.40;;;;;;5088648;28;20400;-82
2022/05/02 07:31:12;;;;;;;9.82;5.95;;;11.50;77.90;;;;;;5095872;28;20089;-82
2022/05/02 07:33:38;;;;;;;8.68;4.90;;;11.60;77.10;;;;;;5061290;28;20066;-82
2022/05/02 07:36:05;;;;;;;10.23;5.35;;;11.70;76.90;;;;;;5077593;28;20029;-82
2022/05/02 07:38:36;;;;;;;8.13;5.63;;;11.80;76.50;;;;;;5095631;28;20476;-81
2022/05/02 07:41:25;;;;;;;8.63;4.82;;;11.80;76.10;;;;;;5077713;28;20357;-82
2022/05/02 07:43:53;;;;;;;12.32;5.25;;;11.90;75.70;;;;;;5095457;28;20024;-82
2022/05/02 07:46:27;;;;;;;13.52;5.50;;;12.00;75.30;;;;;;5095576;28;20386;-82
2022/05/02 07:48:55;;;;;;;8.93;5.53;;;12.10;74.70;;;;;;5095817;28;20421;-81
2022/05/02 07:51:22;;;;;;;9.43;5.82;;;12.20;74.50;;;;;;5094851;28;20024;-81
2022/05/02 07:53:51;;;;;;;7.13;4.97;;;12.30;73.70;;;;;;5073834;28;20174;-82
2022/05/02 07:56:23;;;;;;;9.93;5.38;;;12.40;73.70;;;;;;5075671;28;20032;-82
2022/05/02 07:58:52;;;;;;;11.70;6.13;;;12.50;73.30;;;;;;5074945;28;20024;-82
2022/05/02 08:01:19;;;;;;;11.88;6.70;;;12.50;73.00;;;;;;5075088;28;20040;-83
2022/05/02 08:03:45;;;;;;;12.43;6.15;;;12.60;72.70;;;;;;5057395;28;20477;-83
2022/05/02 08:06:11;;;;;;;9.57;5.88;;;12.70;72.10;;;;;;5056940;28;20082;-80
2022/05/02 08:08:51;;;;;;;10.20;6.45;;;12.80;71.70;;;;;;5056995;28;20028;-82
2022/05/02 08:11:30;;;;;;;10.57;6.50;;;12.90;71.10;;;;;;5074861;28;20079;-83
2022/05/02 08:14:15;;;;;;;10.32;6.70;;;13.00;70.90;;;;;;5074863;28;20028;-81
2022/05/02 08:17:11;;;;;;;10.35;5.55;;;13.10;70.80;;;;;;5075436;28;20480;-83
2022/05/02 08:20:01;;;;;;;11.68;6.13;;;13.20;70.70;;;;;;5066047;28;20090;-82
2022/05/02 08:29:01;;;;;;;12.13;5.60;;;13.40;70.60;;;;;;5095170;28;20102;-82
2022/05/02 08:31:51;;;;;;;10.15;5.90;;;13.50;69.70;;;;;;5094640;28;20020;-83
2022/05/02 08:34:26;;;;;;;9.05;6.00;;;13.60;69.20;;;;;;5076289;28;20103;-82
2022/05/02 08:37:19;;;;;;;12.05;5.75;;;13.70;68.90;;;;;;5076318;28;20024;-82
2022/05/02 08:39:45;;;;;;;10.77;6.13;;;13.70;68.40;;;;;;5076204;28;20026;-82
2022/05/02 08:42:41;;;;;;;10.30;5.38;;;13.90;67.60;;;;;;5094294;28;20024;-82
2022/05/02 08:45:41;;;;;;;12.50;6.78;;;13.90;66.90;;;;;;5076277;28;20020;-82
2022/05/02 08:48:43;;;;;;;10.80;5.80;;;14.10;65.70;;;;;;5094364;28;20020;-80
2022/05/02 08:51:42;;;;;;;12.40;6.38;;;14.20;65.70;;;;;;5094817;28;20055;-81
2022/05/02 08:54:22;;;;;;;9.23;5.25;;;14.30;65.30;;;;;;5076048;28;20092;-81
2022/05/02 08:57:02;;;;;;;11.27;6.32;;;14.40;65.20;;;;;;5094157;28;20027;-82
2022/05/02 08:59:50;;;;;;;10.40;6.07;;;14.40;64.70;;;;;;5094181;28;20361;-82
2022/05/02 09:03:00;;;;;;;12.40;6.10;;;14.50;64.20;;;;;;5075835;28;20028;-82
2022/05/02 09:05:35;;;;;;;10.25;5.53;;;14.60;63.80;;;;;;5063099;28;20032;-81
2022/05/02 09:08:38;;;;;;;9.32;5.53;;;14.70;63.50;;;;;;5093650;28;20020;-82
2022/05/02 09:11:33;;;;;;;10.90;6.18;;;14.90;62.80;;;;;;5093998;28;20422;-82
2022/05/02 09:14:16;;;;;;;8.85;5.30;;;15.00;62.00;;;;;;5093885;28;20059;-82
2022/05/02 09:16:57;;;;;;;10.23;5.72;;;15.20;61.90;;;;;;5093858;28;20491;-83
2022/05/02 09:19:50;;;;;;;11.73;5.55;;;15.30;61.80;;;;;;5093963;28;20032;-82
2022/05/02 09:22:28;;;;;;;11.77;5.90;;;15.40;61.10;;;;;;5094216;28;20028;-82
2022/05/02 09:25:04;;;;;;;12.90;6.07;;;15.50;61.10;;;;;;5075532;28;20155;-82
2022/05/02 09:28:15;;;;;;;11.15;6.38;;;15.60;60.80;;;;;;5093534;28;20044;-82
2022/05/02 09:30:49;;;;;;;10.40;5.90;;;15.70;60.70;;;;;;5011628;28;20522;-81
2022/05/02 09:33:34;;;;;;;11.10;7.10;;;15.90;60.60;;;;;;4995392;28;20080;-83
2022/05/02 09:36:04;;;;;;;;;;;16.10;60.30;;;;;;5052492;28;20032;-83
2022/05/02 09:38:53;;;;;;;10.70;5.20;;;16.20;59.50;;;;;;5058616;28;19908;-81
2022/05/02 09:41:49;;;;;;;9.05;5.32;;;16.30;59.60;;;;;;5065180;28;20066;-82
2022/05/02 09:51:00;;;;;;;9.57;5.53;;;16.60;58.60;;;;;;5093339;28;20398;-83
2022/05/02 09:53:53;;;;;;;12.75;6.65;;;16.80;58.30;;;;;;5093845;28;20023;-81
2022/05/02 09:56:38;;;;;;;8.70;6.00;;;16.80;57.90;;;;;;5093755;28;20383;-84
2022/05/02 09:59:33;;;;;;;10.23;5.63;;;16.90;57.50;;;;;;5093535;28;20085;-84
2022/05/02 10:02:07;;;;;;;9.65;6.18;;;17.00;56.80;;;;;;5073587;28;20496;-82
2022/05/02 10:04:47;;;;;;;9.45;6.00;;;17.10;56.60;;;;;;5075071;28;20024;-81
2022/05/02 10:07:18;;;;;;;9.45;5.95;;;17.30;55.90;;;;;;5075005;28;20024;-83
2022/05/02 10:09:49;;;;;;;8.32;5.00;;;17.40;55.00;;;;;;5093298;28;20028;-83
2022/05/02 10:12:24;;;;;;;7.85;4.57;;;17.50;55.10;;;;;;5074989;28;20113;-82
2022/05/02 10:15:25;;;;;;;10.05;5.47;;;17.60;54.40;;;;;;5092982;28;20027;-83
2022/05/02 10:17:51;;;;;;;7.03;4.88;;;17.60;53.20;;;;;;5093202;28;20342;-81
2022/05/02 10:20:20;;;;;;;9.82;6.00;;;17.60;53.10;;;;;;5095317;28;20028;-83
2022/05/02 10:23:04;;;;;;;9.65;6.55;;;17.70;53.00;;;;;;5097218;28;20047;-83
2022/05/02 10:26:01;;;;;;;8.45;5.38;;;17.90;52.70;;;;;;5079118;28;20017;-81
2022/05/02 10:29:06;;;;;;;9.35;5.10;;;18.40;52.30;;;;;;5097043;28;20035;-83
2022/05/02 10:31:35;;;;;;;9.98;5.35;;;18.90;52.00;;;;;;5039022;28;20047;-83
2022/05/02 10:34:03;;;;;;;8.88;5.05;;;19.40;52.00;;;;;;5095026;28;20470;-74
2022/05/02 10:36:38;;;;;;;7.32;4.18;;;19.80;51.70;;;;;;5095249;28;20114;-75
2022/05/02 10:39:29;;;;;;;9.60;4.85;;;20.40;51.10;;;;;;5094832;28;20028;-75
2022/05/02 10:41:58;;;;;;;9.05;4.07;;;21.10;49.80;;;;;;5096797;28;20020;-75
2022/05/02 10:44:35;;;;;;;6.47;4.20;;;21.80;49.40;;;;;;5096535;28;20016;-84
2022/05/02 10:47:03;;;;;;;8.18;4.60;;;22.50;48.70;;;;;;5096910;28;20031;-83
2022/05/02 10:49:34;;;;;;;6.25;4.25;;;23.00;47.50;;;;;;5078074;28;20191;-83
2022/05/02 10:52:20;;;;;;;6.63;3.33;;;23.70;47.00;;;;;;5078399;28;20468;-84
2022/05/02 10:54:55;;;;;;;6.97;4.30;;;24.40;45.20;;;;;;5096633;28;20012;-84
2022/05/02 10:57:45;;;;;;;6.80;4.03;;;25.00;45.10;;;;;;5096504;28;20024;-84
2022/05/02 11:00:12;;;;;;;8.02;4.60;;;25.20;43.50;;;;;;5078097;28;20024;-84
2022/05/02 11:03:09;;;;;;;7.32;5.05;;;25.00;43.80;;;;;;5061486;28;20553;-82
2022/05/02 11:05:44;;;;;;;6.10;3.95;;;24.70;42.70;;;;;;5096384;28;20490;-84
2022/05/02 11:08:19;;;;;;;5.90;3.70;;;24.70;43.00;;;;;;5096220;28;20018;-84
2022/05/02 11:11:03;;;;;;;5.65;4.20;;;25.00;42.40;;;;;;5096426;28;20067;-84
2022/05/02 11:13:28;;;;;;;;;;;25.30;41.70;;;;;;5078734;28;20040;-83
2022/05/02 11:16:12;;;;;;;7.32;4.47;;;25.50;42.10;;;;;;5077834;28;19908;-84
2022/05/02 11:22:20;;;;;;;7.25;3.80;;;25.30;40.60;;;;;;5096935;28;19915;-83
2022/05/02 11:25:06;;;;;;;5.30;3.55;;;25.30;40.90;;;;;;5057773;28;20093;-83
2022/05/02 11:27:58;;;;;;;6.15;4.30;;;25.90;40.40;;;;;;5075583;28;20044;-84
2022/05/02 11:30:28;;;;;;;4.68;3.22;;;26.60;39.70;;;;;;5075466;28;20017;-86
2022/05/02 11:33:16;;;;;;;6.47;3.78;;;27.10;39.40;;;;;;5075805;28;20032;-83
2022/05/02 11:35:49;;;;;;;5.03;3.45;;;27.20;38.30;;;;;;5092580;28;20020;-85
2022/05/02 11:38:37;;;;;;;5.72;2.88;;;27.30;38.50;;;;;;5115114;27;20054;-85
2022/05/02 11:41:14;;;;;;;6.30;3.58;;;27.30;37.60;;;;;;5095727;28;20190;-86
2022/05/02 11:43:40;;;;;;;7.03;3.90;;;27.30;37.70;;;;;;5094265;28;20027;-85
2022/05/02 11:46:22;;;;;;;3.92;2.95;;;27.20;37.90;;;;;;5094542;28;20111;-84
2022/05/02 11:49:18;;;;;;;7.80;3.90;;;27.20;37.10;;;;;;5095692;28;20081;-84
2022/05/02 11:51:51;;;;;;;5.50;3.00;;;27.10;36.60;;;;;;5084115;28;20785;-86
2022/05/02 11:54:54;;;;;;;5.55;3.13;;;26.80;36.30;;;;;;5078066;28;20084;-86
2022/05/02 11:57:35;;;;;;;5.25;3.28;;;26.60;36.20;;;;;;5023885;28;20061;-85
2022/05/02 12:00:07;;;;;;;5.22;2.80;;;26.50;36.30;;;;;;5095299;28;20044;-84
2022/05/02 12:02:38;;;;;;;5.20;3.13;;;26.70;36.30;;;;;;5086840;28;20063;-85
2022/05/02 12:05:13;;;;;;;5.40;3.33;;;26.70;36.00;;;;;;5077152;28;20020;-84
2022/05/02 12:07:43;;;;;;;5.20;3.17;;;26.90;36.00;;;;;;5095687;28;20070;-86
2022/05/02 12:10:09;;;;;;;5.25;3.45;;;26.90;35.80;;;;;;5096196;28;20507;-86
2022/05/02 12:12:36;;;;;;;4.63;3.10;;;27.10;35.50;;;;;;5095126;28;20020;-86
2022/05/02 12:15:07;;;;;;;5.53;3.63;;;27.20;35.70;;;;;;5076784;28;20495;-87
2022/05/02 12:17:48;;;;;;;5.35;3.60;;;27.40;35.90;;;;;;5094939;28;20472;-85
2022/05/02 12:20:25;;;;;;;6.15;4.13;;;27.50;36.50;;;;;;5076765;28;20020;-85
2022/05/02 12:23:31;;;;;;;7.28;4.15;;;27.70;35.50;;;;;;5094735;28;20530;-85
2022/05/02 12:25:57;;;;;;;4.80;3.38;;;27.80;35.30;;;;;;4993231;28;20034;-85
2022/05/02 12:28:41;;;;;;;5.32;3.63;;;27.90;35.60;;;;;;5060847;28;20117;-85
2022/05/02 12:31:08;;;;;;;7.85;4.15;;;28.00;34.90;;;;;;5094810;28;20055;-85
2022/05/02 12:33:39;;;;;;;6.47;4.00;;;28.10;35.30;;;;;;5060018;28;20028;-83
2022/05/02 12:36:16;;;;;;;5.75;3.65;;;28.20;35.00;;;;;;5094677;28;20059;-83
2022/05/02 12:39:02;;;;;;;6.63;4.00;;;28.40;34.80;;;;;;5094526;28;20073;-84
2022/05/02 12:41:30;;;;;;;6.28;3.38;;;28.50;34.30;;;;;;5094583;28;20085;-85
2022/05/02 12:44:07;;;;;;;6.78;3.55;;;28.60;34.50;;;;;;5075827;28;20055;-84
2022/05/02 12:46:39;;;;;;;8.48;3.28;;;28.80;34.30;;;;;;5094378;28;20024;-86
2022/05/02 12:49:10;;;;;;;5.93;3.63;;;28.90;34.50;;;;;;5094692;28;20024;-85
2022/05/02 12:51:37;;;;;;;5.20;3.33;;;29.20;34.40;;;;;;5094417;28;20024;-85
2022/05/02 12:54:13;;;;;;;4.03;2.33;;;29.30;34.00;;;;;;5094359;28;20095;-84
2022/05/02 13:02:40;;;;;;;4.68;2.97;;;29.80;33.40;;;;;;5094986;28;20031;-83
2022/05/02 13:05:17;;;;;;;7.53;3.15;;;29.90;33.60;;;;;;5111415;28;20065;-83
2022/05/02 13:07:46;;;;;;;4.75;3.20;;;30.00;33.40;;;;;;5114726;28;20042;-87
2022/05/02 13:10:17;;;;;;;6.45;3.17;;;30.20;33.30;;;;;;5114048;28;20020;-86
2022/05/02 13:13:12;;;;;;;5.47;3.55;;;30.30;32.90;;;;;;5093963;28;20085;-85
2022/05/02 13:15:45;;;;;;;5.68;3.20;;;30.40;32.60;;;;;;5071301;28;20035;-87
2022/05/02 13:18:15;;;;;;;4.68;2.78;;;30.50;32.50;;;;;;5078484;28;20389;-86
2022/05/02 13:20:44;;;;;;;6.28;3.35;;;30.60;32.50;;;;;;5055739;28;20029;-88
2022/05/02 13:23:13;;;;;;;4.43;3.10;;;30.60;32.30;;;;;;5073779;28;20024;-86
2022/05/02 13:26:00;;;;;;;8.38;3.65;;;30.70;32.10;;;;;;5073844;28;20028;-83
2022/05/02 13:29:01;;;;;;;4.78;2.67;;;30.90;31.90;;;;;;5059078;28;20072;-86
2022/05/02 13:31:53;;;;;;;9.65;2.47;;;31.00;32.00;;;;;;5069806;28;20032;-84
2022/05/02 13:34:31;;;;;;;3.50;2.15;;;31.20;32.20;;;;;;5055542;28;20033;-84
2022/05/02 13:37:03;;;;;;;5.38;3.13;;;31.30;32.00;;;;;;5073999;28;20103;-83
2022/05/02 13:39:51;;;;;;;4.80;3.15;;;31.50;31.70;;;;;;5092218;28;20028;-83
2022/05/02 13:42:39;;;;;;;4.78;2.88;;;31.50;31.00;;;;;;5093510;28;20036;-85
2022/05/02 13:45:13;;;;;;;6.20;3.33;;;31.30;30.90;;;;;;5062858;28;20039;-86
2022/05/02 13:47:56;;;;;;;5.20;3.60;;;31.00;31.00;;;;;;5093627;28;20024;-85
2022/05/02 13:50:28;;;;;;;;;;;30.70;30.70;;;;;;5093961;28;20024;-85